createdAt,value
2022-08-21T00:01:49.563Z,35.44
2022-08-21T00:04:22.294Z,35.34
2022-08-21T00:06:51.578Z,35.37
2022-08-21T00:09:21.341Z,35.88
2022-08-21T00:11:50.296Z,35.52
2022-08-21T00:14:20.603Z,35.51
2022-08-21T00:16:49.295Z,35.59
2022-08-21T00:19:17.912Z,35.78
2022-08-21T00:21:46.615Z,35.83
2022-08-21T00:24:15.464Z,35.84
2022-08-21T00:26:44.600Z,36.09
2022-08-21T00:29:13.539Z,35.86
2022-08-21T00:31:44.151Z,35.93
2022-08-21T00:34:13.585Z,35.69
2022-08-21T00:36:42.362Z,35.87
2022-08-21T00:39:11.461Z,35.77
2022-08-21T00:41:41.155Z,35.62
2022-08-21T00:44:14.304Z,35.59
2022-08-21T00:46:45.702Z,35.76
2022-08-21T00:49:14.999Z,35.95
2022-08-21T00:51:47.640Z,36.13
2022-08-21T00:54:18.640Z,35.85
2022-08-21T00:56:50.957Z,36.00
2022-08-21T00:59:21.522Z,36.17
2022-08-21T01:01:53.342Z,36.22
2022-08-21T01:04:22.723Z,36.04
2022-08-21T01:06:52.644Z,36.01
2022-08-21T01:09:21.347Z,36.04
2022-08-21T01:11:50.207Z,35.84
2022-08-21T01:14:20.735Z,36.26
2022-08-21T01:16:53.534Z,36.43
2022-08-21T01:19:23.394Z,36.40
2022-08-21T01:21:54.888Z,36.41
2022-08-21T01:24:24.052Z,36.45
2022-08-21T01:26:53.404Z,36.48
2022-08-21T01:29:32.788Z,36.41
2022-08-21T01:32:36.600Z,36.66
2022-08-21T01:35:07.151Z,36.58
2022-08-21T01:37:37.601Z,36.69
2022-08-21T01:40:07.360Z,36.72
2022-08-21T01:42:36.327Z,36.38
2022-08-21T01:45:05.464Z,36.32
2022-08-21T01:47:33.995Z,36.40
2022-08-21T01:50:02.633Z,36.71
2022-08-21T01:52:31.800Z,36.48
2022-08-21T01:55:01.872Z,36.75
2022-08-21T01:57:31.636Z,36.82
2022-08-21T02:00:00.055Z,36.65
2022-08-21T02:02:28.562Z,36.80
2022-08-21T02:04:57.072Z,36.99
2022-08-21T02:07:25.776Z,37.04
2022-08-21T02:09:54.191Z,37.04
2022-08-21T02:12:25.874Z,37.39
2022-08-21T02:15:14.356Z,37.24
2022-08-21T02:17:44.707Z,37.47
2022-08-21T02:20:18.130Z,37.28
2022-08-21T02:22:46.645Z,37.68
2022-08-21T02:25:15.363Z,37.46
2022-08-21T02:27:48.621Z,37.57
2022-08-21T02:30:20.094Z,37.62
2022-08-21T02:32:48.982Z,37.73
2022-08-21T02:35:17.609Z,37.89
2022-08-21T02:37:48.824Z,37.89
2022-08-21T02:40:19.121Z,37.72
2022-08-21T02:42:49.327Z,37.67
2022-08-21T02:45:19.582Z,37.87
2022-08-21T02:47:51.186Z,37.85
2022-08-21T02:50:23.230Z,37.70
2022-08-21T02:52:55.050Z,38.00
2022-08-21T02:55:27.578Z,37.73
2022-08-21T02:57:59.026Z,38.02
2022-08-21T03:00:29.555Z,38.15
2022-08-21T03:02:59.176Z,38.08
2022-08-21T03:05:29.481Z,37.96
2022-08-21T03:07:58.536Z,38.04
2022-08-21T03:10:28.139Z,38.14
2022-08-21T03:12:58.097Z,38.36
2022-08-21T03:15:27.127Z,38.19
2022-08-21T03:17:56.329Z,38.35
2022-08-21T03:20:26.871Z,38.55
2022-08-21T03:22:56.523Z,38.63
2022-08-21T03:25:40.342Z,38.57
2022-08-21T03:28:13.681Z,38.93
2022-08-21T03:30:42.503Z,38.67
2022-08-21T03:33:12.344Z,38.73
2022-08-21T03:35:44.685Z,38.87
2022-08-21T03:38:14.329Z,38.70
2022-08-21T03:40:43.847Z,38.61
2022-08-21T03:43:13.903Z,38.73
2022-08-21T03:45:42.712Z,38.88
2022-08-21T03:48:11.330Z,38.92
2022-08-21T03:50:44.635Z,38.77
2022-08-21T03:53:16.488Z,38.41
2022-08-21T03:55:47.793Z,38.79
2022-08-21T03:58:19.600Z,38.73
2022-08-21T04:00:49.920Z,38.74
2022-08-21T04:03:19.159Z,38.94
2022-08-21T04:05:48.004Z,39.10
2022-08-21T04:08:19.722Z,39.01
2022-08-21T04:10:51.076Z,38.70
2022-08-21T04:13:21.551Z,38.98
2022-08-21T04:15:50.419Z,38.88
2022-08-21T04:18:19.446Z,39.17
2022-08-21T04:20:50.707Z,38.95
2022-08-21T04:23:24.313Z,38.85
2022-08-21T04:25:54.844Z,38.96
2022-08-21T04:28:28.820Z,38.72
2022-08-21T04:30:59.574Z,39.20
2022-08-21T04:33:28.178Z,39.08
2022-08-21T04:35:56.619Z,38.84
2022-08-21T04:38:25.160Z,39.16
2022-08-21T04:40:54.309Z,39.02
2022-08-21T04:43:24.546Z,39.58
2022-08-21T04:45:55.907Z,39.16
2022-08-21T04:48:26.335Z,39.06
2022-08-21T04:50:59.563Z,39.01
2022-08-21T04:53:34.504Z,38.86
2022-08-21T04:56:06.683Z,39.59
2022-08-21T04:58:36.659Z,39.39
2022-08-21T05:01:09.402Z,39.19
2022-08-21T05:03:40.020Z,38.89
2022-08-21T05:06:12.040Z,38.78
2022-08-21T05:08:41.963Z,38.94
2022-08-21T05:11:10.515Z,39.00
2022-08-21T05:13:39.018Z,39.01
2022-08-21T05:16:09.362Z,38.55
2022-08-21T05:18:37.774Z,38.44
2022-08-21T05:21:06.475Z,38.38
2022-08-21T05:23:34.956Z,38.21
2022-08-21T05:26:03.569Z,38.24
2022-08-21T05:28:32.141Z,37.74
2022-08-21T05:31:00.811Z,38.08
2022-08-21T05:33:30.730Z,38.23
2022-08-21T05:35:59.539Z,38.14
2022-08-21T05:38:29.692Z,37.69
2022-08-21T11:19:32.667Z,22.52
2022-08-21T11:22:10.243Z,22.85
2022-08-21T11:24:46.719Z,23.32
2022-08-21T11:27:23.020Z,22.99
2022-08-21T11:29:54.779Z,22.99
2022-08-21T11:32:38.060Z,22.83
2022-08-21T11:35:19.385Z,23.04
2022-08-21T11:38:04.640Z,22.74
2022-08-21T11:40:46.904Z,23.29
2022-08-21T11:43:25.530Z,22.68
2022-08-21T11:45:56.175Z,23.34
2022-08-21T11:48:41.579Z,23.70
2022-08-21T11:51:14.924Z,22.97
2022-08-21T11:53:54.255Z,23.04
2022-08-21T11:56:29.390Z,23.11
2022-08-21T11:59:02.911Z,23.27
2022-08-21T12:01:37.101Z,23.26
2022-08-21T12:04:10.639Z,23.75
2022-08-21T12:06:43.883Z,23.53
2022-08-21T12:09:35.542Z,23.78
2022-08-21T12:12:07.534Z,23.67
2022-08-21T12:14:41.668Z,23.46
2022-08-21T12:17:20.540Z,23.46
2022-08-21T12:20:00.394Z,23.20
2022-08-21T12:22:42.148Z,22.90
2022-08-21T12:25:15.754Z,23.07
2022-08-21T12:27:49.035Z,23.49
2022-08-21T12:30:36.735Z,23.50
2022-08-21T12:33:08.326Z,23.84
2022-08-21T12:35:41.491Z,23.32
2022-08-21T12:38:18.079Z,23.81
2022-08-21T12:40:48.658Z,23.63
2022-08-21T12:43:22.470Z,23.84
2022-08-21T12:45:53.547Z,23.34
2022-08-21T12:48:27.568Z,23.21
2022-08-21T12:50:58.706Z,23.55
2022-08-21T12:53:32.946Z,23.51
2022-08-21T12:56:04.820Z,23.90
2022-08-21T12:58:34.079Z,23.34
2022-08-21T13:01:07.055Z,23.69
2022-08-21T13:03:39.826Z,23.68
2022-08-21T13:06:10.705Z,23.74
2022-08-21T13:08:45.511Z,23.48
2022-08-21T13:11:32.598Z,24.09
2022-08-21T13:14:05.711Z,23.64
2022-08-21T13:16:35.680Z,23.85
2022-08-21T13:19:07.932Z,24.03
2022-08-21T13:21:37.794Z,23.94
2022-08-21T13:24:40.803Z,23.23
2022-08-21T13:27:06.140Z,23.33
2022-08-21T13:29:38.507Z,23.32
2022-08-21T13:32:09.038Z,23.65
2022-08-21T13:34:39.943Z,23.46
2022-08-21T13:37:10.941Z,23.34
2022-08-21T13:39:41.147Z,23.27
2022-08-21T13:42:15.004Z,22.93
2022-08-21T13:44:47.926Z,22.93
2022-08-21T13:47:18.581Z,23.20
2022-08-21T13:49:50.074Z,23.23
2022-08-21T13:52:21.534Z,23.72
2022-08-21T13:54:57.422Z,23.26
2022-08-21T13:57:31.148Z,22.73
2022-08-21T14:00:14.834Z,23.19
2022-08-21T14:02:45.700Z,22.91
2022-08-21T14:05:21.766Z,22.78
2022-08-21T14:07:52.099Z,23.00
2022-08-21T14:10:24.515Z,22.41
2022-08-21T14:12:55.434Z,22.00
2022-08-21T14:15:29.583Z,22.22
2022-08-21T14:18:10.463Z,21.66
2022-08-21T14:20:39.241Z,22.22
2022-08-21T14:23:07.695Z,22.24
2022-08-21T14:25:43.777Z,21.91
2022-08-21T14:28:21.032Z,21.87
2022-08-21T14:30:51.586Z,22.05
2022-08-21T14:33:28.274Z,21.97
2022-08-21T14:35:56.951Z,22.64
2022-08-21T14:38:27.401Z,22.52
2022-08-21T14:41:01.609Z,23.02
2022-08-21T14:43:30.920Z,23.17
2022-08-21T14:45:59.397Z,23.15
2022-08-21T14:48:27.957Z,23.31
2022-08-21T14:51:00.347Z,23.13
2022-08-21T14:53:29.264Z,23.70
2022-08-21T14:56:08.003Z,23.53
2022-08-21T14:58:39.150Z,23.95
2022-08-21T15:01:08.793Z,23.98
2022-08-21T15:03:37.748Z,23.84
2022-08-21T15:06:08.506Z,23.63
2022-08-21T15:08:37.236Z,23.67
2022-08-21T15:11:12.013Z,23.84
2022-08-21T15:13:42.585Z,23.75
2022-08-21T15:16:13.165Z,23.88
2022-08-21T15:18:42.916Z,23.63
2022-08-21T15:21:11.442Z,23.88
2022-08-21T15:23:43.743Z,23.96
2022-08-21T15:26:13.978Z,23.71
2022-08-21T15:28:42.776Z,23.62
2022-08-21T15:31:11.273Z,23.54
2022-08-21T15:33:39.745Z,24.09
2022-08-21T15:36:08.914Z,23.98
2022-08-21T15:38:37.469Z,23.89
2022-08-21T15:41:07.178Z,24.04
2022-08-21T15:43:42.976Z,23.84
2022-08-21T15:46:14.192Z,24.18
2022-08-21T15:48:42.682Z,24.50
2022-08-21T15:51:12.407Z,24.18
2022-08-21T15:53:41.570Z,24.27
2022-08-21T15:56:19.978Z,24.64
2022-08-21T15:58:50.287Z,24.53
2022-08-21T16:01:26.072Z,24.42
2022-08-21T16:03:56.347Z,24.54
2022-08-21T16:06:37.704Z,24.51
2022-08-21T16:09:07.876Z,24.93
2022-08-21T16:11:36.381Z,24.76
2022-08-21T16:14:09.451Z,24.87
2022-08-21T16:16:38.584Z,25.03
2022-08-21T16:19:08.140Z,24.94
2022-08-21T16:21:37.372Z,24.98
2022-08-21T16:24:06.390Z,24.97
2022-08-21T16:26:35.075Z,25.23
2022-08-21T16:29:04.464Z,25.15
2022-08-21T16:31:34.711Z,24.86
2022-08-21T16:34:04.056Z,25.08
2022-08-21T16:36:32.604Z,25.47
2022-08-21T16:39:02.349Z,25.44
2022-08-21T16:41:35.776Z,25.48
2022-08-21T16:44:05.156Z,25.62
2022-08-21T16:46:37.640Z,25.25
2022-08-21T16:49:06.150Z,25.74
2022-08-21T16:51:34.595Z,25.80
2022-08-21T16:54:03.175Z,25.76
2022-08-21T16:56:31.762Z,25.87
2022-08-21T16:59:00.470Z,25.88
2022-08-21T17:01:31.536Z,26.11
2022-08-21T17:04:02.161Z,26.16
2022-08-21T17:06:31.492Z,26.13
2022-08-21T17:09:01.721Z,25.89
2022-08-21T17:11:37.567Z,26.30
2022-08-21T17:14:09.640Z,26.28
2022-08-21T17:16:39.507Z,26.52
2022-08-21T17:19:09.955Z,26.01
2022-08-21T17:21:38.495Z,26.15
2022-08-21T17:24:07.206Z,26.46
2022-08-21T17:26:36.556Z,26.06
2022-08-21T17:29:09.930Z,25.82
2022-08-21T17:31:40.383Z,25.82
2022-08-21T17:34:11.634Z,25.99
2022-08-21T17:36:40.131Z,26.27
2022-08-21T17:39:10.034Z,26.62
2022-08-21T17:41:38.636Z,26.46
2022-08-21T17:44:11.105Z,26.68
2022-08-21T17:46:41.108Z,26.78
2022-08-21T17:49:11.916Z,27.24
2022-08-21T17:51:40.700Z,27.18
2022-08-21T17:54:09.337Z,26.88
2022-08-21T17:56:40.786Z,27.20
2022-08-21T17:59:10.574Z,27.07
2022-08-21T18:01:42.723Z,26.72
2022-08-21T18:04:13.454Z,27.19
2022-08-21T18:06:42.378Z,27.08
2022-08-21T18:09:12.885Z,27.21
2022-08-21T18:11:43.104Z,27.33
2022-08-21T18:14:12.735Z,27.40
2022-08-21T18:16:41.308Z,27.41
2022-08-21T18:19:16.167Z,27.14
2022-08-21T18:21:45.570Z,27.42
2022-08-21T18:24:14.398Z,27.41
2022-08-21T18:26:44.092Z,27.26
2022-08-21T18:29:16.968Z,27.25
2022-08-21T18:31:47.274Z,27.49
2022-08-21T18:34:23.879Z,27.56
2022-08-21T18:36:52.589Z,27.60
2022-08-21T18:39:38.107Z,27.77
2022-08-21T18:42:10.840Z,28.12
2022-08-21T18:44:40.403Z,28.00
2022-08-21T18:47:14.484Z,27.88
2022-08-21T18:49:44.430Z,27.90
2022-08-21T18:52:17.629Z,28.16
2022-08-21T18:54:49.845Z,28.17
2022-08-21T18:57:20.928Z,28.22
2022-08-21T18:59:49.802Z,28.28
2022-08-21T19:02:18.303Z,28.12
2022-08-21T19:04:48.268Z,28.20
2022-08-21T19:07:18.750Z,28.13
2022-08-21T19:12:36.623Z,28.43
2022-08-21T19:15:10.830Z,28.54
2022-08-21T19:17:39.894Z,28.48
2022-08-21T19:20:16.769Z,28.62
2022-08-21T19:22:56.262Z,28.54
2022-08-21T19:25:33.492Z,28.40
2022-08-21T19:28:19.444Z,28.30
2022-08-21T19:30:56.702Z,28.32
2022-08-21T19:33:33.704Z,28.49
2022-08-21T19:36:03.857Z,28.72
2022-08-21T19:38:32.382Z,28.65
2022-08-21T19:41:01.239Z,28.74
2022-08-21T19:43:31.347Z,28.79
2022-08-21T19:46:00.805Z,28.63
2022-08-21T19:48:29.407Z,28.72
2022-08-21T19:50:57.893Z,28.72
2022-08-21T19:53:27.814Z,28.82
2022-08-21T19:55:56.351Z,28.82
2022-08-21T19:58:35.122Z,28.93
2022-08-21T20:01:11.576Z,28.96
2022-08-21T20:03:53.825Z,28.89
2022-08-21T20:09:13.266Z,28.93
2022-08-21T20:11:45.407Z,28.97
2022-08-21T20:14:17.662Z,29.23
2022-08-21T20:16:47.760Z,29.26
2022-08-21T20:19:16.338Z,29.11
2022-08-21T20:21:47.704Z,29.03
2022-08-21T20:24:17.644Z,28.98
2022-08-21T20:26:48.737Z,29.31
2022-08-21T20:29:39.336Z,29.35
2022-08-21T20:32:12.192Z,29.19
2022-08-21T20:34:41.261Z,29.38
2022-08-21T20:37:13.830Z,29.37
2022-08-21T20:40:05.990Z,29.46
2022-08-21T20:42:34.562Z,29.72
2022-08-21T20:48:02.541Z,29.84
2022-08-21T20:50:33.250Z,29.88
2022-08-21T20:53:14.294Z,29.84
2022-08-21T20:55:48.986Z,29.99
2022-08-21T20:58:33.378Z,30.03
2022-08-21T21:01:07.859Z,30.13
2022-08-21T21:06:32.330Z,30.22
2022-08-21T21:09:09.271Z,30.48
2022-08-21T21:11:44.642Z,30.58
2022-08-21T21:14:23.429Z,30.60
2022-08-21T21:16:56.524Z,30.62
2022-08-21T21:19:37.009Z,30.76
2022-08-21T21:22:10.357Z,30.74
2022-08-21T21:24:44.781Z,30.95
2022-08-21T21:27:18.783Z,30.94
2022-08-21T21:29:51.652Z,30.83
2022-08-21T21:32:21.287Z,31.03
2022-08-21T21:37:43.607Z,31.17
2022-08-21T21:40:40.068Z,31.10
2022-08-21T21:43:24.756Z,31.31
2022-08-21T21:46:12.401Z,31.34
2022-08-21T21:49:01.631Z,31.28
2022-08-21T21:51:42.378Z,31.28
2022-08-21T21:54:21.677Z,31.35
2022-08-21T21:57:04.262Z,31.18
2022-08-21T22:02:14.814Z,31.23
2022-08-21T22:04:53.246Z,31.32
2022-08-21T22:07:29.641Z,31.29
2022-08-21T22:10:06.434Z,31.40
2022-08-21T22:12:54.126Z,31.36
2022-08-21T22:15:26.539Z,31.28
2022-08-21T22:18:02.557Z,31.75
2022-08-21T22:20:35.218Z,31.57
2022-08-21T22:23:05.822Z,31.41
2022-08-21T22:25:43.347Z,31.43
2022-08-21T22:28:15.065Z,31.41
2022-08-21T22:30:48.977Z,31.42
2022-08-21T22:33:21.778Z,31.44
2022-08-21T22:35:53.032Z,31.44
2022-08-21T22:38:29.950Z,31.39
2022-08-21T22:43:54.516Z,31.45
2022-08-21T22:46:32.017Z,31.70
2022-08-21T22:49:07.398Z,31.94
2022-08-21T22:51:39.773Z,31.65
2022-08-21T22:57:05.595Z,31.79
2022-08-21T22:59:37.431Z,31.63
2022-08-21T23:02:20.448Z,31.87
2022-08-21T23:04:52.319Z,31.72
2022-08-21T23:07:43.697Z,31.77
2022-08-21T23:10:26.248Z,31.91
2022-08-21T23:13:00.535Z,31.96
2022-08-21T23:15:33.291Z,31.74
2022-08-21T23:18:13.744Z,31.86
2022-08-21T23:20:56.266Z,31.86
2022-08-21T23:23:27.970Z,31.88
2022-08-21T23:26:17.511Z,32.03
2022-08-21T23:29:07.710Z,32.29
2022-08-21T23:31:44.805Z,31.83
2022-08-21T23:34:25.828Z,31.92
2022-08-21T23:40:40.996Z,32.24
2022-08-21T23:43:37.610Z,32.22
2022-08-21T23:46:33.447Z,32.07
2022-08-21T23:49:17.759Z,32.06
2022-08-21T23:51:57.157Z,32.07
2022-08-21T23:54:35.709Z,32.07
2022-08-21T23:57:26.639Z,32.27
